sensor_id;sensor_type;location;lat;lon;timestamp;temperature;humidity
53410;DHT22;66590;50.734;4.246;2023-05-07T00:00:54;16.60;99.90
53410;DHT22;66590;50.734;4.246;2023-05-07T00:03:21;16.60;99.90
53410;DHT22;66590;50.734;4.246;2023-05-07T00:05:48;16.60;99.90
53410;DHT22;66590;50.734;4.246;2023-05-07T00:08:15;16.60;99.90
53410;DHT22;66590;50.734;4.246;2023-05-07T00:10:44;16.60;99.90
53410;DHT22;66590;50.734;4.246;2023-05-07T00:13:11;16.60;99.90
53410;DHT22;66590;50.734;4.246;2023-05-07T00:15:38;16.50;99.90
53410;DHT22;66590;50.734;4.246;2023-05-07T00:18:05;16.50;99.90
53410;DHT22;66590;50.734;4.246;2023-05-07T00:20:32;16.50;99.90
53410;DHT22;66590;50.734;4.246;2023-05-07T00:23:02;16.50;99.90
53410;DHT22;66590;50.734;4.246;2023-05-07T00:25:28;16.50;99.90
53410;DHT22;66590;50.734;4.246;2023-05-07T00:27:57;16.40;99.90
53410;DHT22;66590;50.734;4.246;2023-05-07T00:30:24;16.40;99.90
53410;DHT22;66590;50.734;4.246;2023-05-07T00:32:51;16.40;99.90
53410;DHT22;66590;50.734;4.246;2023-05-07T00:35:18;16.40;99.90
53410;DHT22;66590;50.734;4.246;2023-05-07T00:37:45;16.40;99.90
53410;DHT22;66590;50.734;4.246;2023-05-07T00:40:12;16.40;99.90
53410;DHT22;66590;50.734;4.246;2023-05-07T00:42:39;16.50;99.90
53410;DHT22;66590;50.734;4.246;2023-05-07T00:45:08;16.40;99.90
53410;DHT22;66590;50.734;4.246;2023-05-07T00:47:36;16.30;99.90
53410;DHT22;66590;50.734;4.246;2023-05-07T00:50:04;16.20;99.90
53410;DHT22;66590;50.734;4.246;2023-05-07T00:52:31;16.20;99.90
53410;DHT22;66590;50.734;4.246;2023-05-07T00:55:00;16.20;99.90
53410;DHT22;66590;50.734;4.246;2023-05-07T00:57:33;16.20;99.90
53410;DHT22;66590;50.734;4.246;2023-05-07T01:00:03;16.20;99.90
53410;DHT22;66590;50.734;4.246;2023-05-07T01:02:32;16.20;99.90
53410;DHT22;66590;50.734;4.246;2023-05-07T01:05:00;16.20;99.90
53410;DHT22;66590;50.734;4.246;2023-05-07T01:07:28;16.10;99.90
53410;DHT22;66590;50.734;4.246;2023-05-07T01:09:56;16.10;99.90
53410;DHT22;66590;50.734;4.246;2023-05-07T01:12:24;16.00;99.90
53410;DHT22;66590;50.734;4.246;2023-05-07T01:14:52;15.90;99.90
53410;DHT22;66590;50.734;4.246;2023-05-07T01:17:19;15.90;99.90
53410;DHT22;66590;50.734;4.246;2023-05-07T01:19:47;15.80;99.90
53410;DHT22;66590;50.734;4.246;2023-05-07T01:22:16;15.90;99.90
53410;DHT22;66590;50.734;4.246;2023-05-07T01:24:46;15.70;99.90
53410;DHT22;66590;50.734;4.246;2023-05-07T01:27:14;15.70;99.90
53410;DHT22;66590;50.734;4.246;2023-05-07T01:29:41;15.70;99.90
53410;DHT22;66590;50.734;4.246;2023-05-07T01:32:08;15.70;99.90
53410;DHT22;66590;50.734;4.246;2023-05-07T01:34:36;15.60;99.90
53410;DHT22;66590;50.734;4.246;2023-05-07T01:37:04;15.60;99.90
53410;DHT22;66590;50.734;4.246;2023-05-07T01:39:32;15.60;99.90
53410;DHT22;66590;50.734;4.246;2023-05-07T01:42:01;15.40;99.90
53410;DHT22;66590;50.734;4.246;2023-05-07T01:44:28;15.30;99.90
53410;DHT22;66590;50.734;4.246;2023-05-07T01:46:56;15.30;99.90
53410;DHT22;66590;50.734;4.246;2023-05-07T01:49:23;15.20;99.90
53410;DHT22;66590;50.734;4.246;2023-05-07T01:51:51;15.20;99.90
53410;DHT22;66590;50.734;4.246;2023-05-07T01:54:18;15.20;99.90
53410;DHT22;66590;50.734;4.246;2023-05-07T01:56:45;15.30;99.90
53410;DHT22;66590;50.734;4.246;2023-05-07T01:59:13;15.30;99.90
53410;DHT22;66590;50.734;4.246;2023-05-07T02:01:46;15.30;99.90
53410;DHT22;66590;50.734;4.246;2023-05-07T02:04:13;15.20;99.90
53410;DHT22;66590;50.734;4.246;2023-05-07T02:06:47;15.20;99.90
53410;DHT22;66590;50.734;4.246;2023-05-07T02:09:14;15.20;99.90
53410;DHT22;66590;50.734;4.246;2023-05-07T02:11:48;15.20;99.90
53410;DHT22;66590;50.734;4.246;2023-05-07T02:14:17;15.20;99.90
53410;DHT22;66590;50.734;4.246;2023-05-07T02:16:44;15.30;99.90
53410;DHT22;66590;50.734;4.246;2023-05-07T02:19:17;15.30;99.90
53410;DHT22;66590;50.734;4.246;2023-05-07T02:21:44;15.20;99.90
53410;DHT22;66590;50.734;4.246;2023-05-07T02:24:18;15.20;99.90
53410;DHT22;66590;50.734;4.246;2023-05-07T02:26:45;15.10;99.90
53410;DHT22;66590;50.734;4.246;2023-05-07T02:29:12;15.10;99.90
53410;DHT22;66590;50.734;4.246;2023-05-07T02:31:47;15.00;99.90
53410;DHT22;66590;50.734;4.246;2023-05-07T02:34:14;15.10;99.90
53410;DHT22;66590;50.734;4.246;2023-05-07T02:36:47;15.10;99.90
53410;DHT22;66590;50.734;4.246;2023-05-07T02:39:14;15.00;99.90
53410;DHT22;66590;50.734;4.246;2023-05-07T02:41:41;15.00;99.90
53410;DHT22;66590;50.734;4.246;2023-05-07T02:44:14;15.00;99.90
53410;DHT22;66590;50.734;4.246;2023-05-07T02:46:41;15.00;99.90
53410;DHT22;66590;50.734;4.246;2023-05-07T02:49:16;15.00;99.90
53410;DHT22;66590;50.734;4.246;2023-05-07T02:51:43;15.00;99.90
53410;DHT22;66590;50.734;4.246;2023-05-07T02:54:16;15.00;99.90
53410;DHT22;66590;50.734;4.246;2023-05-07T02:56:43;15.00;99.90
53410;DHT22;66590;50.734;4.246;2023-05-07T02:59:10;15.10;99.90
53410;DHT22;66590;50.734;4.246;2023-05-07T03:01:43;15.00;99.90
53410;DHT22;66590;50.734;4.246;2023-05-07T03:04:11;15.10;99.90
53410;DHT22;66590;50.734;4.246;2023-05-07T03:06:46;15.10;99.90
53410;DHT22;66590;50.734;4.246;2023-05-07T03:09:13;15.10;99.90
53410;DHT22;66590;50.734;4.246;2023-05-07T03:11:46;15.10;99.90
53410;DHT22;66590;50.734;4.246;2023-05-07T03:14:21;15.00;99.90
53410;DHT22;66590;50.734;4.246;2023-05-07T03:16:54;15.00;99.90
53410;DHT22;66590;50.734;4.246;2023-05-07T03:19:21;15.10;99.90
53410;DHT22;66590;50.734;4.246;2023-05-07T03:21:49;15.20;99.90
53410;DHT22;66590;50.734;4.246;2023-05-07T03:24:23;15.20;99.90
53410;DHT22;66590;50.734;4.246;2023-05-07T03:26:50;15.20;99.90
53410;DHT22;66590;50.734;4.246;2023-05-07T03:29:23;15.30;99.90
53410;DHT22;66590;50.734;4.246;2023-05-07T03:31:50;15.30;99.90
53410;DHT22;66590;50.734;4.246;2023-05-07T03:34:30;15.40;99.90
53410;DHT22;66590;50.734;4.246;2023-05-07T03:37:00;15.50;99.90
53410;DHT22;66590;50.734;4.246;2023-05-07T03:39:33;15.50;99.90
53410;DHT22;66590;50.734;4.246;2023-05-07T03:42:00;15.50;99.90
53410;DHT22;66590;50.734;4.246;2023-05-07T03:44:33;15.40;99.90
53410;DHT22;66590;50.734;4.246;2023-05-07T03:47:00;15.40;99.90
53410;DHT22;66590;50.734;4.246;2023-05-07T03:49:27;15.40;99.90
53410;DHT22;66590;50.734;4.246;2023-05-07T03:52:02;15.40;99.90
53410;DHT22;66590;50.734;4.246;2023-05-07T03:54:29;15.50;99.90
53410;DHT22;66590;50.734;4.246;2023-05-07T03:57:03;15.50;99.90
53410;DHT22;66590;50.734;4.246;2023-05-07T03:59:30;15.30;99.90
53410;DHT22;66590;50.734;4.246;2023-05-07T04:01:58;15.30;99.90
53410;DHT22;66590;50.734;4.246;2023-05-07T04:04:31;15.30;99.90
53410;DHT22;66590;50.734;4.246;2023-05-07T04:06:58;15.30;99.90
53410;DHT22;66590;50.734;4.246;2023-05-07T04:09:34;15.30;99.90
53410;DHT22;66590;50.734;4.246;2023-05-07T04:12:01;15.30;99.90
53410;DHT22;66590;50.734;4.246;2023-05-07T04:14:34;15.30;99.90
53410;DHT22;66590;50.734;4.246;2023-05-07T04:17:01;15.30;99.90
53410;DHT22;66590;50.734;4.246;2023-05-07T04:19:28;15.20;99.90
53410;DHT22;66590;50.734;4.246;2023-05-07T04:22:01;15.20;99.90
53410;DHT22;66590;50.734;4.246;2023-05-07T04:24:31;15.20;99.90
53410;DHT22;66590;50.734;4.246;2023-05-07T04:27:06;15.20;99.90
53410;DHT22;66590;50.734;4.246;2023-05-07T04:29:33;15.20;99.90
53410;DHT22;66590;50.734;4.246;2023-05-07T04:32:06;15.30;99.90
53410;DHT22;66590;50.734;4.246;2023-05-07T04:34:34;15.30;99.90
53410;DHT22;66590;50.734;4.246;2023-05-07T04:37:01;15.40;99.90
53410;DHT22;66590;50.734;4.246;2023-05-07T04:39:34;15.30;99.90
53410;DHT22;66590;50.734;4.246;2023-05-07T04:42:01;15.30;99.90
53410;DHT22;66590;50.734;4.246;2023-05-07T04:44:36;15.30;99.90
53410;DHT22;66590;50.734;4.246;2023-05-07T04:47:03;15.40;99.90
53410;DHT22;66590;50.734;4.246;2023-05-07T04:49:37;15.40;99.90
53410;DHT22;66590;50.734;4.246;2023-05-07T04:52:04;15.40;99.90
53410;DHT22;66590;50.734;4.246;2023-05-07T04:54:37;15.50;99.90
53410;DHT22;66590;50.734;4.246;2023-05-07T04:57:04;15.40;99.90
53410;DHT22;66590;50.734;4.246;2023-05-07T04:59:32;15.50;99.90
53410;DHT22;66590;50.734;4.246;2023-05-07T05:02:07;15.50;99.90
53410;DHT22;66590;50.734;4.246;2023-05-07T05:04:34;15.70;99.90
53410;DHT22;66590;50.734;4.246;2023-05-07T05:07:07;15.70;99.90
53410;DHT22;66590;50.734;4.246;2023-05-07T05:09:34;15.60;99.90
53410;DHT22;66590;50.734;4.246;2023-05-07T05:12:01;15.60;99.90
53410;DHT22;66590;50.734;4.246;2023-05-07T05:14:36;15.60;99.90
53410;DHT22;66590;50.734;4.246;2023-05-07T05:17:03;15.70;99.90
53410;DHT22;66590;50.734;4.246;2023-05-07T05:19:38;15.80;99.90
53410;DHT22;66590;50.734;4.246;2023-05-07T05:22:05;16.00;99.90
53410;DHT22;66590;50.734;4.246;2023-05-07T05:24:32;16.10;99.90
53410;DHT22;66590;50.734;4.246;2023-05-07T05:27:05;16.10;99.90
53410;DHT22;66590;50.734;4.246;2023-05-07T05:29:32;15.80;99.90
53410;DHT22;66590;50.734;4.246;2023-05-07T05:32:06;15.60;99.90
53410;DHT22;66590;50.734;4.246;2023-05-07T05:34:33;15.20;99.90
53410;DHT22;66590;50.734;4.246;2023-05-07T05:37:02;15.10;99.90
53410;DHT22;66590;50.734;4.246;2023-05-07T05:39:36;15.20;99.90
53410;DHT22;66590;50.734;4.246;2023-05-07T05:42:03;15.30;99.90
53410;DHT22;66590;50.734;4.246;2023-05-07T05:44:36;15.30;99.90
53410;DHT22;66590;50.734;4.246;2023-05-07T05:47:03;15.50;99.90
53410;DHT22;66590;50.734;4.246;2023-05-07T05:49:37;15.60;99.90
53410;DHT22;66590;50.734;4.246;2023-05-07T05:52:06;15.30;99.90
53410;DHT22;66590;50.734;4.246;2023-05-07T05:54:39;15.20;99.90
53410;DHT22;66590;50.734;4.246;2023-05-07T05:57:06;15.10;99.90
53410;DHT22;66590;50.734;4.246;2023-05-07T05:59:33;15.00;99.90
53410;DHT22;66590;50.734;4.246;2023-05-07T06:02:07;15.00;99.90
53410;DHT22;66590;50.734;4.246;2023-05-07T06:04:34;14.90;99.90
53410;DHT22;66590;50.734;4.246;2023-05-07T06:07:09;14.90;99.90
53410;DHT22;66590;50.734;4.246;2023-05-07T06:09:36;14.90;99.90
53410;DHT22;66590;50.734;4.246;2023-05-07T06:12:09;14.90;99.90
53410;DHT22;66590;50.734;4.246;2023-05-07T06:14:36;14.90;99.90
53410;DHT22;66590;50.734;4.246;2023-05-07T06:17:10;15.00;99.90
53410;DHT22;66590;50.734;4.246;2023-05-07T06:19:37;14.90;99.90
53410;DHT22;66590;50.734;4.246;2023-05-07T06:22:04;15.00;99.90
53410;DHT22;66590;50.734;4.246;2023-05-07T06:24:39;14.90;99.90
53410;DHT22;66590;50.734;4.246;2023-05-07T06:27:06;15.00;99.90
53410;DHT22;66590;50.734;4.246;2023-05-07T06:29:39;15.00;99.90
53410;DHT22;66590;50.734;4.246;2023-05-07T06:32:07;15.00;99.90
53410;DHT22;66590;50.734;4.246;2023-05-07T06:34:41;14.90;99.90
53410;DHT22;66590;50.734;4.246;2023-05-07T06:37:08;15.00;99.90
53410;DHT22;66590;50.734;4.246;2023-05-07T06:39:35;15.00;99.90
53410;DHT22;66590;50.734;4.246;2023-05-07T06:42:10;15.10;99.90
53410;DHT22;66590;50.734;4.246;2023-05-07T06:44:39;15.10;99.90
53410;DHT22;66590;50.734;4.246;2023-05-07T06:47:13;15.20;99.90
53410;DHT22;66590;50.734;4.246;2023-05-07T06:49:42;15.10;99.90
53410;DHT22;66590;50.734;4.246;2023-05-07T06:52:15;15.10;99.90
53410;DHT22;66590;50.734;4.246;2023-05-07T06:54:42;15.00;99.90
53410;DHT22;66590;50.734;4.246;2023-05-07T06:57:11;15.00;99.90
53410;DHT22;66590;50.734;4.246;2023-05-07T06:59:44;15.20;99.90
53410;DHT22;66590;50.734;4.246;2023-05-07T07:02:11;15.40;99.90
53410;DHT22;66590;50.734;4.246;2023-05-07T07:04:38;15.40;99.90
53410;DHT22;66590;50.734;4.246;2023-05-07T07:07:12;15.30;99.90
53410;DHT22;66590;50.734;4.246;2023-05-07T07:09:39;15.30;99.90
53410;DHT22;66590;50.734;4.246;2023-05-07T07:12:14;15.40;99.90
53410;DHT22;66590;50.734;4.246;2023-05-07T07:14:41;15.50;99.90
53410;DHT22;66590;50.734;4.246;2023-05-07T07:17:14;15.60;99.90
53410;DHT22;66590;50.734;4.246;2023-05-07T07:19:41;15.70;99.90
53410;DHT22;66590;50.734;4.246;2023-05-07T07:22:09;15.70;99.90
53410;DHT22;66590;50.734;4.246;2023-05-07T07:24:42;15.80;99.90
53410;DHT22;66590;50.734;4.246;2023-05-07T07:27:09;15.80;99.90
53410;DHT22;66590;50.734;4.246;2023-05-07T07:29:38;15.80;99.90
53410;DHT22;66590;50.734;4.246;2023-05-07T07:32:05;15.80;99.90
53410;DHT22;66590;50.734;4.246;2023-05-07T07:34:32;15.80;99.90
53410;DHT22;66590;50.734;4.246;2023-05-07T07:36:59;15.70;99.90
53410;DHT22;66590;50.734;4.246;2023-05-07T07:39:26;15.70;99.90
53410;DHT22;66590;50.734;4.246;2023-05-07T07:41:53;15.80;99.90
53410;DHT22;66590;50.734;4.246;2023-05-07T07:44:19;16.00;99.90
53410;DHT22;66590;50.734;4.246;2023-05-07T07:46:48;16.00;99.90
53410;DHT22;66590;50.734;4.246;2023-05-07T07:49:15;15.90;99.90
53410;DHT22;66590;50.734;4.246;2023-05-07T07:51:42;16.00;99.90
53410;DHT22;66590;50.734;4.246;2023-05-07T07:54:09;15.70;99.90
53410;DHT22;66590;50.734;4.246;2023-05-07T07:56:36;15.70;99.90
53410;DHT22;66590;50.734;4.246;2023-05-07T07:59:03;15.60;99.90
53410;DHT22;66590;50.734;4.246;2023-05-07T08:01:31;15.60;99.90
53410;DHT22;66590;50.734;4.246;2023-05-07T08:03:59;15.50;99.90
53410;DHT22;66590;50.734;4.246;2023-05-07T08:06:26;15.60;99.90
53410;DHT22;66590;50.734;4.246;2023-05-07T08:08:53;15.60;99.90
53410;DHT22;66590;50.734;4.246;2023-05-07T08:11:20;15.70;99.90
53410;DHT22;66590;50.734;4.246;2023-05-07T08:13:47;15.80;99.90
53410;DHT22;66590;50.734;4.246;2023-05-07T08:16:14;16.00;99.90
53410;DHT22;66590;50.734;4.246;2023-05-07T08:18:42;16.00;99.90
53410;DHT22;66590;50.734;4.246;2023-05-07T08:21:10;16.00;99.90
53410;DHT22;66590;50.734;4.246;2023-05-07T08:23:37;16.00;99.90
53410;DHT22;66590;50.734;4.246;2023-05-07T08:26:04;16.00;99.90
53410;DHT22;66590;50.734;4.246;2023-05-07T08:28:31;15.90;99.90
53410;DHT22;66590;50.734;4.246;2023-05-07T08:30:58;15.90;99.90
53410;DHT22;66590;50.734;4.246;2023-05-07T08:33:25;16.00;99.90
53410;DHT22;66590;50.734;4.246;2023-05-07T08:35:52;16.00;99.90
53410;DHT22;66590;50.734;4.246;2023-05-07T08:38:21;16.10;99.90
53410;DHT22;66590;50.734;4.246;2023-05-07T08:40:48;16.10;99.90
53410;DHT22;66590;50.734;4.246;2023-05-07T08:43:14;16.30;99.90
53410;DHT22;66590;50.734;4.246;2023-05-07T08:45:41;16.50;99.90
53410;DHT22;66590;50.734;4.246;2023-05-07T08:48:15;16.60;99.90
53410;DHT22;66590;50.734;4.246;2023-05-07T08:50:42;16.70;99.90
53410;DHT22;66590;50.734;4.246;2023-05-07T08:53:09;16.80;99.90
53410;DHT22;66590;50.734;4.246;2023-05-07T08:55:37;17.00;99.90
53410;DHT22;66590;50.734;4.246;2023-05-07T08:58:04;17.10;99.90
53410;DHT22;66590;50.734;4.246;2023-05-07T09:00:32;17.20;99.90
53410;DHT22;66590;50.734;4.246;2023-05-07T09:03:00;17.20;99.90
53410;DHT22;66590;50.734;4.246;2023-05-07T09:05:27;17.30;99.90
53410;DHT22;66590;50.734;4.246;2023-05-07T09:07:54;17.30;99.90
53410;DHT22;66590;50.734;4.246;2023-05-07T09:10:24;17.50;99.90
53410;DHT22;66590;50.734;4.246;2023-05-07T09:12:53;17.60;99.90
53410;DHT22;66590;50.734;4.246;2023-05-07T09:15:20;17.60;99.90
53410;DHT22;66590;50.734;4.246;2023-05-07T09:17:47;17.60;99.90
53410;DHT22;66590;50.734;4.246;2023-05-07T09:20:16;17.70;99.90
53410;DHT22;66590;50.734;4.246;2023-05-07T09:22:43;17.70;99.90
53410;DHT22;66590;50.734;4.246;2023-05-07T09:25:11;17.70;99.90
53410;DHT22;66590;50.734;4.246;2023-05-07T09:27:38;17.70;99.90
53410;DHT22;66590;50.734;4.246;2023-05-07T09:30:07;17.70;99.90
53410;DHT22;66590;50.734;4.246;2023-05-07T09:32:35;17.50;99.90
53410;DHT22;66590;50.734;4.246;2023-05-07T09:35:03;17.40;99.90
53410;DHT22;66590;50.734;4.246;2023-05-07T09:37:31;17.60;99.90
53410;DHT22;66590;50.734;4.246;2023-05-07T09:39:58;17.20;99.90
53410;DHT22;66590;50.734;4.246;2023-05-07T09:42:25;16.90;99.90
53410;DHT22;66590;50.734;4.246;2023-05-07T09:44:52;16.70;99.90
53410;DHT22;66590;50.734;4.246;2023-05-07T09:47:24;16.80;99.90
53410;DHT22;66590;50.734;4.246;2023-05-07T09:49:55;17.00;99.90
53410;DHT22;66590;50.734;4.246;2023-05-07T09:52:23;17.10;99.90
53410;DHT22;66590;50.734;4.246;2023-05-07T09:54:50;17.10;99.90
53410;DHT22;66590;50.734;4.246;2023-05-07T09:57:19;17.20;99.90
53410;DHT22;66590;50.734;4.246;2023-05-07T09:59:47;17.20;99.90
53410;DHT22;66590;50.734;4.246;2023-05-07T10:02:14;17.30;99.90
53410;DHT22;66590;50.734;4.246;2023-05-07T10:04:43;17.10;99.90
53410;DHT22;66590;50.734;4.246;2023-05-07T10:07:11;16.90;99.90
53410;DHT22;66590;50.734;4.246;2023-05-07T10:09:39;17.00;99.90
53410;DHT22;66590;50.734;4.246;2023-05-07T10:12:06;17.30;99.90
53410;DHT22;66590;50.734;4.246;2023-05-07T10:14:34;17.30;99.90
53410;DHT22;66590;50.734;4.246;2023-05-07T10:17:02;17.30;99.90
53410;DHT22;66590;50.734;4.246;2023-05-07T10:19:29;17.40;99.90
53410;DHT22;66590;50.734;4.246;2023-05-07T10:22:02;17.40;99.90
53410;DHT22;66590;50.734;4.246;2023-05-07T10:24:33;17.40;99.90
53410;DHT22;66590;50.734;4.246;2023-05-07T10:27:02;17.40;99.90
53410;DHT22;66590;50.734;4.246;2023-05-07T10:32:33;17.60;99.90
53410;DHT22;66590;50.734;4.246;2023-05-07T10:35:04;17.70;99.90
53410;DHT22;66590;50.734;4.246;2023-05-07T10:37:35;17.80;99.90
53410;DHT22;66590;50.734;4.246;2023-05-07T10:40:02;17.80;99.90
53410;DHT22;66590;50.734;4.246;2023-05-07T10:42:29;17.90;99.90
53410;DHT22;66590;50.734;4.246;2023-05-07T10:44:56;18.00;99.90
53410;DHT22;66590;50.734;4.246;2023-05-07T10:47:23;18.10;99.90
53410;DHT22;66590;50.734;4.246;2023-05-07T10:50:21;18.10;99.90
53410;DHT22;66590;50.734;4.246;2023-05-07T10:53:23;18.10;99.90
53410;DHT22;66590;50.734;4.246;2023-05-07T10:55:52;18.00;99.90
53410;DHT22;66590;50.734;4.246;2023-05-07T10:58:38;18.10;99.90
53410;DHT22;66590;50.734;4.246;2023-05-07T11:01:06;18.20;99.90
53410;DHT22;66590;50.734;4.246;2023-05-07T11:03:33;18.20;99.90
53410;DHT22;66590;50.734;4.246;2023-05-07T11:06:10;18.50;99.90
53410;DHT22;66590;50.734;4.246;2023-05-07T11:08:55;18.30;99.90
53410;DHT22;66590;50.734;4.246;2023-05-07T11:11:46;18.40;99.90
53410;DHT22;66590;50.734;4.246;2023-05-07T11:14:14;18.30;99.90
53410;DHT22;66590;50.734;4.246;2023-05-07T11:17:03;18.10;99.90
53410;DHT22;66590;50.734;4.246;2023-05-07T11:19:49;18.10;99.90
53410;DHT22;66590;50.734;4.246;2023-05-07T11:22:37;18.40;99.90
53410;DHT22;66590;50.734;4.246;2023-05-07T11:25:06;18.20;99.90
53410;DHT22;66590;50.734;4.246;2023-05-07T11:27:37;18.10;99.90
53410;DHT22;66590;50.734;4.246;2023-05-07T11:30:08;18.00;99.90
53410;DHT22;66590;50.734;4.246;2023-05-07T11:32:40;17.90;99.90
53410;DHT22;66590;50.734;4.246;2023-05-07T11:35:10;17.70;99.90
53410;DHT22;66590;50.734;4.246;2023-05-07T11:37:39;17.70;99.90
53410;DHT22;66590;50.734;4.246;2023-05-07T11:40:07;17.60;99.90
53410;DHT22;66590;50.734;4.246;2023-05-07T11:42:36;17.60;99.90
53410;DHT22;66590;50.734;4.246;2023-05-07T11:45:04;17.80;99.90
53410;DHT22;66590;50.734;4.246;2023-05-07T11:47:32;18.00;99.90
53410;DHT22;66590;50.734;4.246;2023-05-07T11:50:04;18.00;99.90
53410;DHT22;66590;50.734;4.246;2023-05-07T11:52:32;17.90;99.90
53410;DHT22;66590;50.734;4.246;2023-05-07T11:55:00;18.20;99.90
53410;DHT22;66590;50.734;4.246;2023-05-07T11:57:28;18.30;99.90
53410;DHT22;66590;50.734;4.246;2023-05-07T11:59:55;18.30;99.90
53410;DHT22;66590;50.734;4.246;2023-05-07T12:02:22;18.40;99.90
53410;DHT22;66590;50.734;4.246;2023-05-07T12:04:49;18.80;99.90
53410;DHT22;66590;50.734;4.246;2023-05-07T12:07:18;18.90;99.90
53410;DHT22;66590;50.734;4.246;2023-05-07T12:09:45;19.10;99.90
53410;DHT22;66590;50.734;4.246;2023-05-07T12:12:12;19.00;99.90
53410;DHT22;66590;50.734;4.246;2023-05-07T12:14:39;18.90;99.90
53410;DHT22;66590;50.734;4.246;2023-05-07T12:17:09;18.70;99.90
53410;DHT22;66590;50.734;4.246;2023-05-07T12:19:38;18.80;99.90
53410;DHT22;66590;50.734;4.246;2023-05-07T12:22:05;18.80;99.90
53410;DHT22;66590;50.734;4.246;2023-05-07T12:24:45;18.50;99.90
53410;DHT22;66590;50.734;4.246;2023-05-07T12:27:13;18.50;99.90
53410;DHT22;66590;50.734;4.246;2023-05-07T12:29:40;18.60;99.90
53410;DHT22;66590;50.734;4.246;2023-05-07T12:32:15;18.90;99.90
53410;DHT22;66590;50.734;4.246;2023-05-07T12:34:43;18.90;99.90
53410;DHT22;66590;50.734;4.246;2023-05-07T12:37:12;19.00;99.90
53410;DHT22;66590;50.734;4.246;2023-05-07T12:39:46;18.50;99.90
53410;DHT22;66590;50.734;4.246;2023-05-07T12:42:15;18.30;99.90
53410;DHT22;66590;50.734;4.246;2023-05-07T12:44:45;18.20;99.90
53410;DHT22;66590;50.734;4.246;2023-05-07T12:47:18;18.20;99.90
53410;DHT22;66590;50.734;4.246;2023-05-07T12:49:44;18.10;99.90
53410;DHT22;66590;50.734;4.246;2023-05-07T12:52:12;18.40;99.90
53410;DHT22;66590;50.734;4.246;2023-05-07T12:54:39;18.90;99.90
53410;DHT22;66590;50.734;4.246;2023-05-07T12:57:08;19.10;99.90
53410;DHT22;66590;50.734;4.246;2023-05-07T12:59:38;18.80;99.90
53410;DHT22;66590;50.734;4.246;2023-05-07T13:02:08;18.60;99.90
53410;DHT22;66590;50.734;4.246;2023-05-07T13:04:37;18.60;99.90
53410;DHT22;66590;50.734;4.246;2023-05-07T13:07:06;18.70;99.90
53410;DHT22;66590;50.734;4.246;2023-05-07T13:09:36;18.60;99.90
53410;DHT22;66590;50.734;4.246;2023-05-07T13:12:05;18.50;99.90
53410;DHT22;66590;50.734;4.246;2023-05-07T13:14:33;18.30;99.90
53410;DHT22;66590;50.734;4.246;2023-05-07T13:17:01;18.40;99.90
53410;DHT22;66590;50.734;4.246;2023-05-07T13:19:31;18.80;99.90
53410;DHT22;66590;50.734;4.246;2023-05-07T13:21:59;18.70;99.90
53410;DHT22;66590;50.734;4.246;2023-05-07T13:24:29;19.00;99.90
53410;DHT22;66590;50.734;4.246;2023-05-07T13:27:29;18.90;99.90
53410;DHT22;66590;50.734;4.246;2023-05-07T13:33:24;19.70;99.90
53410;DHT22;66590;50.734;4.246;2023-05-07T13:36:10;19.50;99.90
53410;DHT22;66590;50.734;4.246;2023-05-07T13:42:43;19.00;99.90
53410;DHT22;66590;50.734;4.246;2023-05-07T13:45:49;18.90;99.90
53410;DHT22;66590;50.734;4.246;2023-05-07T13:48:28;18.70;99.90
53410;DHT22;66590;50.734;4.246;2023-05-07T13:51:12;18.90;99.90
53410;DHT22;66590;50.734;4.246;2023-05-07T13:54:04;19.00;99.90
53410;DHT22;66590;50.734;4.246;2023-05-07T13:59:24;18.70;99.90
53410;DHT22;66590;50.734;4.246;2023-05-07T14:02:01;18.60;99.90
53410;DHT22;66590;50.734;4.246;2023-05-07T14:04:50;18.50;99.90
53410;DHT22;66590;50.734;4.246;2023-05-07T14:07:28;18.80;99.90
53410;DHT22;66590;50.734;4.246;2023-05-07T14:10:16;18.70;99.90
53410;DHT22;66590;50.734;4.246;2023-05-07T14:12:56;18.50;99.90
53410;DHT22;66590;50.734;4.246;2023-05-07T14:15:58;18.60;99.90
53410;DHT22;66590;50.734;4.246;2023-05-07T14:21:49;18.90;99.90
53410;DHT22;66590;50.734;4.246;2023-05-07T14:24:30;18.60;99.90
53410;DHT22;66590;50.734;4.246;2023-05-07T14:27:33;18.70;99.90
53410;DHT22;66590;50.734;4.246;2023-05-07T14:30:09;19.10;99.90
53410;DHT22;66590;50.734;4.246;2023-05-07T14:32:48;19.00;99.90
53410;DHT22;66590;50.734;4.246;2023-05-07T14:38:59;19.20;99.90
53410;DHT22;66590;50.734;4.246;2023-05-07T14:41:41;19.20;99.90
53410;DHT22;66590;50.734;4.246;2023-05-07T14:44:26;19.10;99.90
53410;DHT22;66590;50.734;4.246;2023-05-07T14:47:02;19.30;99.90
53410;DHT22;66590;50.734;4.246;2023-05-07T14:49:38;19.20;99.90
53410;DHT22;66590;50.734;4.246;2023-05-07T14:52:20;19.30;99.90
53410;DHT22;66590;50.734;4.246;2023-05-07T14:55:03;19.20;99.90
53410;DHT22;66590;50.734;4.246;2023-05-07T14:57:39;19.10;99.90
53410;DHT22;66590;50.734;4.246;2023-05-07T15:00:27;19.00;99.90
53410;DHT22;66590;50.734;4.246;2023-05-07T15:03:06;19.10;99.90
53410;DHT22;66590;50.734;4.246;2023-05-07T15:05:37;18.80;99.90
53410;DHT22;66590;50.734;4.246;2023-05-07T15:08:04;19.10;99.90
53410;DHT22;66590;50.734;4.246;2023-05-07T15:10:35;19.10;99.90
53410;DHT22;66590;50.734;4.246;2023-05-07T15:13:02;18.90;99.90
53410;DHT22;66590;50.734;4.246;2023-05-07T15:15:29;19.10;99.90
53410;DHT22;66590;50.734;4.246;2023-05-07T15:18:01;19.10;99.90
53410;DHT22;66590;50.734;4.246;2023-05-07T15:20:28;19.20;99.90
53410;DHT22;66590;50.734;4.246;2023-05-07T15:22:55;19.00;99.90
53410;DHT22;66590;50.734;4.246;2023-05-07T15:25:24;18.90;99.90
53410;DHT22;66590;50.734;4.246;2023-05-07T15:27:53;19.00;99.90
53410;DHT22;66590;50.734;4.246;2023-05-07T15:30:25;19.20;99.90
53410;DHT22;66590;50.734;4.246;2023-05-07T15:32:53;19.20;99.90
53410;DHT22;66590;50.734;4.246;2023-05-07T15:35:28;19.20;99.90
53410;DHT22;66590;50.734;4.246;2023-05-07T15:38:09;19.20;99.90
53410;DHT22;66590;50.734;4.246;2023-05-07T15:40:37;19.20;99.90
53410;DHT22;66590;50.734;4.246;2023-05-07T15:43:26;19.00;99.90
53410;DHT22;66590;50.734;4.246;2023-05-07T15:48:50;19.00;99.90
53410;DHT22;66590;50.734;4.246;2023-05-07T15:51:33;19.20;99.90
53410;DHT22;66590;50.734;4.246;2023-05-07T15:54:06;19.30;99.90
53410;DHT22;66590;50.734;4.246;2023-05-07T15:56:48;19.10;99.90
53410;DHT22;66590;50.734;4.246;2023-05-07T15:59:38;19.10;99.90
53410;DHT22;66590;50.734;4.246;2023-05-07T16:02:15;19.00;99.90
53410;DHT22;66590;50.734;4.246;2023-05-07T16:05:09;18.90;99.90
53410;DHT22;66590;50.734;4.246;2023-05-07T16:07:54;18.80;99.90
53410;DHT22;66590;50.734;4.246;2023-05-07T16:10:37;18.80;99.90
53410;DHT22;66590;50.734;4.246;2023-05-07T16:13:04;19.00;99.90
53410;DHT22;66590;50.734;4.246;2023-05-07T16:15:45;18.80;99.90